Time;durP1;ratioP1;P1;durP2;ratioP2;P2;SDS_P1;SDS_P2;PMS_P1;PMS_P2;Temp;Humidity;BMP_temperature;BMP_pressure;BME280_temperature;BME280_humidity;BME280_pressure;Samples;Min_cycle;Max_cycle;Signal;HPM_P1;HPM_P2
2021/03/08 00:01:14;;;;;;;29.90;22.27;;;-1.30;99.90;;;;;;5113708;28;21021;-71
2021/03/08 00:03:41;;;;;;;29.47;20.20;;;-1.30;99.90;;;;;;5104974;28;20971;-70
2021/03/08 00:06:07;;;;;;;30.70;22.10;;;-1.40;99.90;;;;;;5112779;28;20627;-69
2021/03/08 00:08:34;;;;;;;29.93;20.70;;;-1.40;99.90;;;;;;5113632;28;20456;-70
2021/03/08 00:11:00;;;;;;;27.20;21.03;;;-1.50;99.90;;;;;;5113913;28;20465;-69
2021/03/08 00:13:26;;;;;;;24.97;19.67;;;-1.40;99.90;;;;;;5113190;27;20463;-70
2021/03/08 00:15:53;;;;;;;29.43;21.37;;;-1.50;99.90;;;;;;5113541;28;20892;-70
2021/03/08 00:18:20;;;;;;;28.17;22.07;;;-1.50;99.90;;;;;;5114038;28;20524;-71
2021/03/08 00:20:46;;;;;;;36.03;23.30;;;-1.60;99.90;;;;;;5113594;28;20565;-71
2021/03/08 00:23:13;;;;;;;26.23;20.03;;;-1.70;99.90;;;;;;5113401;28;21006;-71
2021/03/08 00:25:40;;;;;;;30.43;20.73;;;-1.60;99.90;;;;;;5112613;28;20473;-71
2021/03/08 00:28:06;;;;;;;32.63;20.70;;;-1.60;99.90;;;;;;5113476;28;20480;-71
2021/03/08 00:30:32;;;;;;;30.10;21.10;;;-1.50;99.90;;;;;;5113689;28;20856;-71
2021/03/08 00:32:59;;;;;;;32.50;22.10;;;-1.50;99.90;;;;;;5113433;28;20437;-70
2021/03/08 00:35:27;;;;;;;34.10;22.33;;;-1.40;99.90;;;;;;5112469;28;20503;-71
2021/03/08 00:37:53;;;;;;;27.93;20.57;;;-1.40;99.90;;;;;;5113205;28;20524;-71
2021/03/08 00:40:21;;;;;;;32.60;22.20;;;-1.40;99.90;;;;;;5113225;28;20869;-71
2021/03/08 00:42:48;;;;;;;30.10;21.60;;;-1.40;99.90;;;;;;5113469;28;20537;-71
2021/03/08 00:45:16;;;;;;;30.40;21.03;;;-1.40;99.90;;;;;;5111109;28;20485;-70
2021/03/08 00:47:43;;;;;;;31.43;20.27;;;-1.40;99.90;;;;;;5113146;28;20536;-71
2021/03/08 00:50:13;;;;;;;25.33;18.33;;;-1.40;99.90;;;;;;5113248;28;20533;-72
2021/03/08 00:52:40;;;;;;;33.83;21.53;;;-1.50;99.90;;;;;;5113271;28;20544;-71
2021/03/08 00:55:08;;;;;;;31.80;21.13;;;-1.60;99.90;;;;;;5112441;28;20858;-70
2021/03/08 00:57:35;;;;;;;37.73;20.80;;;-1.70;99.90;;;;;;5113392;28;20456;-71
2021/03/08 01:00:01;;;;;;;33.20;22.30;;;-1.80;99.90;;;;;;5113258;28;20485;-71
2021/03/08 01:02:27;;;;;;;31.40;20.53;;;-1.80;99.90;;;;;;5113083;28;20498;-72
2021/03/08 01:04:54;;;;;;;35.10;21.17;;;-1.80;99.90;;;;;;5112133;28;20568;-70
2021/03/08 01:07:20;;;;;;;26.63;18.77;;;-1.80;99.90;;;;;;5112765;28;20524;-70
2021/03/08 01:09:47;;;;;;;32.67;21.23;;;-1.90;99.90;;;;;;5112790;27;20536;-71
2021/03/08 01:12:14;;;;;;;37.70;24.30;;;-1.90;99.90;;;;;;5112732;27;20528;-71
2021/03/08 01:14:40;;;;;;;33.10;21.87;;;-1.80;99.90;;;;;;5112008;28;20875;-71
2021/03/08 01:17:07;;;;;;;31.20;21.10;;;-1.80;99.90;;;;;;5112824;28;20524;-71
2021/03/08 01:19:33;;;;;;;29.67;20.67;;;-1.80;99.90;;;;;;5112623;28;20532;-71
2021/03/08 01:22:00;;;;;;;33.47;23.57;;;-1.70;99.90;;;;;;5112286;28;20438;-72
2021/03/08 01:24:27;;;;;;;32.23;22.03;;;-1.70;99.90;;;;;;5111149;28;20923;-71
2021/03/08 01:26:54;;;;;;;33.60;26.00;;;-1.90;99.90;;;;;;5111277;28;20530;-70
2021/03/08 01:29:21;;;;;;;32.27;24.40;;;-1.90;99.90;;;;;;5112163;28;20286;-71
2021/03/08 01:31:47;;;;;;;33.00;23.17;;;-1.90;99.90;;;;;;5112497;28;20528;-71
2021/03/08 01:34:13;;;;;;;31.47;22.00;;;-1.90;99.90;;;;;;5111298;28;20552;-72
2021/03/08 01:36:40;;;;;;;36.60;22.80;;;-2.00;99.90;;;;;;5111674;28;20446;-71
2021/03/08 01:39:07;;;;;;;35.00;19.77;;;-2.00;99.90;;;;;;5111467;28;20441;-71
2021/03/08 01:41:33;;;;;;;31.53;21.33;;;-2.00;99.90;;;;;;5111750;28;20445;-70
2021/03/08 01:44:00;;;;;;;29.87;20.17;;;-2.00;99.90;;;;;;5109744;28;20485;-72
2021/03/08 01:46:27;;;;;;;33.13;21.27;;;-2.00;99.90;;;;;;5111508;28;20532;-70
2021/03/08 01:48:53;;;;;;;28.90;20.17;;;-2.10;99.90;;;;;;5111240;28;20984;-70
2021/03/08 01:51:20;;;;;;;31.70;21.70;;;-2.10;99.90;;;;;;5111253;28;20531;-69
2021/03/08 01:53:47;;;;;;;33.77;21.20;;;-2.10;99.90;;;;;;5110585;28;20620;-70
2021/03/08 01:56:13;;;;;;;29.10;19.70;;;-2.10;99.90;;;;;;5110663;28;20552;-69
2021/03/08 01:58:40;;;;;;;32.33;21.07;;;-2.20;99.90;;;;;;5111390;28;20528;-69
2021/03/08 02:01:08;;;;;;;30.33;21.80;;;-2.30;99.90;;;;;;5111154;28;21036;-69
2021/03/08 02:03:34;;;;;;;32.33;21.80;;;-2.30;99.90;;;;;;5110783;28;20876;-69
2021/03/08 02:06:01;;;;;;;32.10;23.13;;;-2.40;99.90;;;;;;5110910;28;20568;-69
2021/03/08 02:08:28;;;;;;;31.87;22.67;;;-2.50;99.90;;;;;;5111503;28;20466;-69
2021/03/08 02:10:54;;;;;;;36.53;21.97;;;-2.40;99.90;;;;;;5111565;28;20603;-70
2021/03/08 02:14:02;;;;;;;33.37;23.10;;;-2.40;99.90;;;;;;5110438;28;20522;-69
2021/03/08 02:16:34;;;;;;;30.47;20.57;;;-2.40;99.90;;;;;;5110877;28;20540;-69
2021/03/08 02:19:09;;;;;;;38.40;23.87;;;-2.40;99.90;;;;;;5111382;28;20436;-69
2021/03/08 02:22:12;;;;;;;28.93;21.27;;;-2.40;99.90;;;;;;5111079;28;20540;-69
2021/03/08 02:25:07;;;;;;;31.87;22.70;;;-2.50;99.90;;;;;;5110203;28;20484;-70
2021/03/08 02:27:54;;;;;;;31.17;21.87;;;-2.60;99.90;;;;;;5111198;28;20448;-69
2021/03/08 02:30:37;;;;;;;31.90;22.40;;;-2.60;99.90;;;;;;5111177;28;20448;-69
2021/03/08 02:33:07;;;;;;;30.37;21.70;;;-2.70;99.90;;;;;;5111096;28;20529;-69
2021/03/08 02:35:36;;;;;;;35.33;21.90;;;-2.70;99.90;;;;;;5110155;28;20461;-69
2021/03/08 02:38:06;;;;;;;29.63;20.50;;;-2.70;99.90;;;;;;5111089;28;20527;-69
2021/03/08 02:40:35;;;;;;;28.60;20.87;;;-2.80;99.90;;;;;;5111046;28;20532;-69
2021/03/08 02:43:04;;;;;;;33.40;21.97;;;-2.80;99.90;;;;;;5110814;28;20541;-69
2021/03/08 02:45:33;;;;;;;28.60;20.47;;;-2.80;99.90;;;;;;5108924;28;20481;-69
2021/03/08 02:48:03;;;;;;;30.73;21.47;;;-2.80;99.90;;;;;;5111036;28;20441;-70
2021/03/08 02:50:34;;;;;;;32.50;21.90;;;-2.90;99.90;;;;;;5110842;28;21053;-70
2021/03/08 02:53:05;;;;;;;32.83;22.87;;;-2.80;99.90;;;;;;5110941;28;20522;-69
2021/03/08 02:55:37;;;;;;;33.77;21.60;;;-2.80;99.90;;;;;;5109959;28;20532;-69
2021/03/08 02:58:06;;;;;;;36.23;22.23;;;-2.90;99.90;;;;;;5111146;28;20433;-69
2021/03/08 03:00:34;;;;;;;39.17;23.17;;;-2.70;99.90;;;;;;5111241;28;20537;-69
2021/03/08 03:03:01;;;;;;;36.90;24.77;;;-2.60;99.90;;;;;;5110688;28;21018;-69
2021/03/08 03:05:28;;;;;;;32.43;23.60;;;-2.50;99.90;;;;;;5109884;28;20485;-69
2021/03/08 03:07:55;;;;;;;34.70;24.13;;;-2.30;99.90;;;;;;5112366;28;20893;-69
2021/03/08 03:10:27;;;;;;;31.47;22.60;;;-2.20;99.90;;;;;;5114319;28;20451;-69
2021/03/08 03:12:55;;;;;;;31.83;23.37;;;-2.20;99.90;;;;;;5114727;28;20463;-70
2021/03/08 03:15:22;;;;;;;33.87;23.10;;;-2.30;99.90;;;;;;5117964;28;20548;-70
2021/03/08 03:17:51;;;;;;;34.50;25.10;;;-2.30;99.90;;;;;;5116420;28;20437;-69
2021/03/08 03:20:19;;;;;;;36.60;24.00;;;-2.40;99.90;;;;;;5115603;28;20481;-71
2021/03/08 03:22:49;;;;;;;30.10;21.37;;;-2.40;99.90;;;;;;5116317;28;20453;-70
2021/03/08 03:25:20;;;;;;;34.00;22.43;;;-2.50;99.90;;;;;;5113263;28;20488;-69
2021/03/08 03:27:48;;;;;;;32.20;22.23;;;-2.50;99.90;;;;;;5115722;28;20469;-69
2021/03/08 03:30:17;;;;;;;31.00;22.67;;;-2.60;99.90;;;;;;5113853;28;20883;-70
2021/03/08 03:32:44;;;;;;;33.87;22.90;;;-2.70;99.90;;;;;;5113150;27;20524;-69
2021/03/08 03:35:13;;;;;;;35.93;22.50;;;-2.70;99.90;;;;;;5113004;28;21006;-69
2021/03/08 03:37:41;;;;;;;35.77;22.30;;;-2.80;99.90;;;;;;5114943;27;20441;-70
2021/03/08 03:40:09;;;;;;;35.40;22.83;;;-2.90;99.90;;;;;;5114599;28;20583;-70
2021/03/08 03:42:36;;;;;;;32.87;21.80;;;-2.90;99.90;;;;;;5114922;28;20542;-70
2021/03/08 03:45:06;;;;;;;31.10;23.27;;;-2.90;99.90;;;;;;5111873;28;20540;-69
2021/03/08 03:47:33;;;;;;;30.17;21.33;;;-2.90;99.90;;;;;;5113542;28;20520;-69
2021/03/08 03:49:59;;;;;;;31.57;21.13;;;-2.90;99.90;;;;;;5113363;28;20544;-70
2021/03/08 03:52:27;;;;;;;30.37;21.37;;;-3.10;99.90;;;;;;5113417;28;21226;-70
2021/03/08 03:54:53;;;;;;;30.27;23.00;;;-3.00;99.90;;;;;;5112688;28;20595;-70
2021/03/08 03:57:21;;;;;;;35.10;22.57;;;-3.00;99.90;;;;;;5113364;28;20532;-69
2021/03/08 03:59:52;;;;;;;33.33;23.10;;;-3.20;99.90;;;;;;5113311;27;20437;-69
2021/03/08 04:02:24;;;;;;;33.17;22.27;;;-3.20;99.90;;;;;;5113199;28;20445;-70
2021/03/08 04:04:54;;;;;;;31.00;22.90;;;-3.20;99.90;;;;;;5112353;28;20560;-70
2021/03/08 04:07:22;;;;;;;36.50;24.30;;;-3.20;99.90;;;;;;5113053;27;20988;-70
2021/03/08 04:09:51;;;;;;;36.40;22.47;;;-3.30;99.90;;;;;;5113126;28;20535;-69
2021/03/08 04:12:20;;;;;;;32.17;21.27;;;-3.30;99.90;;;;;;5112926;28;20532;-69
2021/03/08 04:14:49;;;;;;;36.13;23.03;;;-3.30;99.90;;;;;;5112352;28;20489;-69
2021/03/08 04:17:16;;;;;;;29.40;21.50;;;-3.30;99.90;;;;;;5112816;28;20541;-70
2021/03/08 04:19:45;;;;;;;39.03;27.50;;;-3.30;99.90;;;;;;5112447;28;20520;-70
2021/03/08 04:22:13;;;;;;;34.47;23.60;;;-3.30;99.90;;;;;;5112743;28;20578;-70
2021/03/08 04:24:42;;;;;;;31.63;23.70;;;-3.20;99.90;;;;;;5111820;28;21094;-70
2021/03/08 04:27:13;;;;;;;28.03;21.97;;;-3.10;99.90;;;;;;5112956;28;20473;-71
2021/03/08 04:29:41;;;;;;;30.47;21.60;;;-3.00;99.90;;;;;;5113013;28;20512;-70
2021/03/08 04:32:10;;;;;;;38.67;24.07;;;-3.00;99.90;;;;;;5112821;28;20441;-70
2021/03/08 04:34:37;;;;;;;34.87;22.87;;;-3.00;99.90;;;;;;5111953;28;20463;-70
2021/03/08 04:37:05;;;;;;;36.83;22.57;;;-3.10;99.90;;;;;;5112798;28;20541;-72
2021/03/08 04:39:35;;;;;;;39.70;23.67;;;-3.20;99.90;;;;;;5112669;28;20445;-70
2021/03/08 04:42:03;;;;;;;31.23;22.50;;;-3.10;99.90;;;;;;5112502;28;20445;-70
2021/03/08 04:44:30;;;;;;;34.00;23.10;;;-3.10;99.90;;;;;;5111499;28;20673;-70
2021/03/08 04:46:57;;;;;;;31.80;21.87;;;-3.20;99.90;;;;;;5112836;28;20921;-70
2021/03/08 04:49:24;;;;;;;34.40;22.77;;;-3.10;99.90;;;;;;5112641;28;20484;-71
2021/03/08 04:51:52;;;;;;;36.83;23.13;;;-3.20;99.90;;;;;;5112678;28;20522;-71
2021/03/08 04:54:20;;;;;;;37.60;22.60;;;-3.20;99.90;;;;;;5111662;28;20461;-71
2021/03/08 04:56:50;;;;;;;38.97;24.90;;;-3.20;99.90;;;;;;5112281;28;20529;-70
2021/03/08 04:59:17;;;;;;;33.77;23.47;;;-3.20;99.90;;;;;;5112213;28;20489;-70
2021/03/08 05:01:46;;;;;;;34.57;22.90;;;-3.20;99.90;;;;;;5112221;28;20536;-70
2021/03/08 05:04:14;;;;;;;31.67;23.20;;;-3.20;99.90;;;;;;5111293;28;20552;-71
2021/03/08 05:06:42;;;;;;;30.03;21.80;;;-3.30;99.90;;;;;;5111896;28;21156;-70
2021/03/08 05:09:10;;;;;;;37.33;23.67;;;-3.40;99.90;;;;;;5111913;28;20525;-70
2021/03/08 05:11:38;;;;;;;30.70;21.47;;;-3.30;99.90;;;;;;5112088;28;21007;-70
2021/03/08 05:14:07;;;;;;;34.20;23.90;;;-3.30;99.90;;;;;;5111310;28;20498;-70
2021/03/08 05:16:39;;;;;;;40.23;26.70;;;-3.40;99.90;;;;;;5111769;28;20503;-70
2021/03/08 05:19:06;;;;;;;32.97;22.17;;;-3.30;99.90;;;;;;5111778;28;20448;-71
2021/03/08 05:21:34;;;;;;;34.50;24.50;;;-3.20;99.90;;;;;;5111726;28;20532;-70
2021/03/08 05:24:01;;;;;;;37.53;23.50;;;-3.30;99.90;;;;;;5110546;28;20973;-68
2021/03/08 05:26:28;;;;;;;35.57;22.87;;;-3.30;99.90;;;;;;5111544;28;20534;-69
2021/03/08 05:28:55;;;;;;;36.60;25.97;;;-3.20;99.90;;;;;;5111471;28;20459;-70
2021/03/08 05:31:24;;;;;;;36.87;24.67;;;-3.30;99.90;;;;;;5110698;28;20536;-70
2021/03/08 05:33:52;;;;;;;39.87;24.33;;;-3.30;99.90;;;;;;5110903;28;20536;-71
2021/03/08 05:36:19;;;;;;;35.40;24.10;;;-3.20;99.90;;;;;;5111391;28;20441;-70
2021/03/08 05:38:47;;;;;;;31.30;21.60;;;-3.10;99.90;;;;;;5111286;28;20998;-70
2021/03/08 05:41:33;;;;;;;33.27;23.90;;;-3.20;99.90;;;;;;5111445;28;20472;-70
2021/03/08 05:44:04;;;;;;;33.87;23.80;;;-3.20;99.90;;;;;;5103233;28;20453;-69
2021/03/08 05:46:55;;;;;;;35.37;23.57;;;-3.30;99.90;;;;;;5106067;28;20929;-70
2021/03/08 05:49:38;;;;;;;33.30;21.90;;;-3.20;99.90;;;;;;5111252;28;20439;-69
2021/03/08 05:52:27;;;;;;;34.27;22.63;;;-3.20;99.90;;;;;;5110688;28;20525;-68
2021/03/08 05:55:22;;;;;;;33.53;23.70;;;-3.20;99.90;;;;;;5103789;28;20544;-67
2021/03/08 05:58:01;;;;;;;31.23;21.63;;;-3.20;99.90;;;;;;5094781;28;20889;-68
2021/03/08 06:00:40;;;;;;;33.10;21.43;;;-3.30;99.90;;;;;;5111133;28;20468;-70
2021/03/08 06:03:19;;;;;;;37.37;23.17;;;-3.40;99.90;;;;;;5109844;28;20449;-69
2021/03/08 06:06:33;;;;;;;31.63;20.63;;;-3.30;99.90;;;;;;5098134;28;20477;-70
2021/03/08 06:09:22;;;;;;;28.57;20.63;;;-3.20;99.90;;;;;;5085338;28;20520;-70
2021/03/08 06:12:05;;;;;;;32.20;20.10;;;-3.30;99.90;;;;;;5087809;28;20830;-70
2021/03/08 06:14:40;;;;;;;31.80;21.40;;;-3.30;99.90;;;;;;5105986;28;20461;-71
2021/03/08 06:17:10;;;;;;;34.13;23.90;;;-3.20;99.90;;;;;;5109728;28;20515;-70
2021/03/08 06:19:38;;;;;;;30.83;20.27;;;-3.20;99.90;;;;;;5109948;28;20812;-69
2021/03/08 06:22:08;;;;;;;31.73;19.83;;;-3.20;99.90;;;;;;5106441;28;20478;-70
2021/03/08 06:24:38;;;;;;;36.17;20.90;;;-3.20;99.90;;;;;;5103066;28;20760;-70
2021/03/08 06:27:06;;;;;;;29.50;20.97;;;-3.20;99.90;;;;;;5109047;28;20441;-71
2021/03/08 06:29:34;;;;;;;32.30;22.80;;;-3.20;99.90;;;;;;5110026;28;20473;-68
2021/03/08 06:32:01;;;;;;;37.37;24.30;;;-3.20;99.90;;;;;;5109251;28;20467;-69
2021/03/08 06:34:27;;;;;;;39.17;23.37;;;-3.10;99.90;;;;;;5108063;28;20464;-69
2021/03/08 06:36:54;;;;;;;37.20;23.53;;;-3.10;99.90;;;;;;5107426;28;20445;-69
2021/03/08 06:39:21;;;;;;;31.90;23.40;;;-3.00;99.90;;;;;;5108389;28;20523;-69
2021/03/08 06:41:48;;;;;;;37.80;22.30;;;-2.90;99.90;;;;;;5108621;28;20449;-71
2021/03/08 06:44:14;;;;;;;38.10;23.97;;;-2.90;99.90;;;;;;5108150;28;20468;-71
2021/03/08 06:46:41;;;;;;;39.00;24.70;;;-2.70;99.90;;;;;;5104344;28;20451;-71
2021/03/08 06:49:08;;;;;;;37.67;25.77;;;-2.60;99.90;;;;;;5104683;28;20533;-72
2021/03/08 06:51:34;;;;;;;34.63;23.37;;;-2.50;99.90;;;;;;5091951;28;20537;-71
2021/03/08 06:54:00;;;;;;;33.57;25.60;;;-2.50;99.90;;;;;;5091273;28;20868;-71
2021/03/08 06:56:27;;;;;;;39.33;25.50;;;-2.40;99.90;;;;;;5098540;28;20477;-72
2021/03/08 06:59:07;;;;;;;38.33;25.47;;;-2.30;99.90;;;;;;5110349;28;20554;-73
2021/03/08 07:01:35;;;;;;;32.70;23.23;;;-2.20;99.90;;;;;;5112221;28;20491;-72
2021/03/08 07:04:02;;;;;;;35.00;24.13;;;-2.20;99.90;;;;;;5108783;28;20583;-72
2021/03/08 07:06:29;;;;;;;34.77;22.53;;;-2.00;99.90;;;;;;5111504;28;20917;-72
2021/03/08 07:09:06;;;;;;;37.27;24.60;;;-1.90;99.90;;;;;;5111542;28;20463;-72
2021/03/08 07:11:32;;;;;;;33.93;22.93;;;-1.90;99.90;;;;;;5112150;28;20477;-72
2021/03/08 07:13:59;;;;;;;31.33;22.77;;;-1.80;99.90;;;;;;5111393;28;20461;-72
2021/03/08 07:16:36;;;;;;;32.30;23.03;;;-1.70;99.90;;;;;;5111824;28;20441;-73
2021/03/08 07:19:03;;;;;;;33.43;21.70;;;-1.60;99.90;;;;;;5111824;28;20552;-73
2021/03/08 07:21:30;;;;;;;39.03;23.30;;;-1.50;99.90;;;;;;5102456;28;21107;-73
2021/03/08 07:24:09;;;;;;;35.60;23.80;;;-1.30;99.90;;;;;;5111192;27;20516;-72
2021/03/08 07:26:36;;;;;;;32.53;23.77;;;-1.30;99.90;;;;;;5110984;28;20476;-72
2021/03/08 07:29:10;;;;;;;27.17;20.47;;;-1.20;99.90;;;;;;5111229;28;20524;-72
2021/03/08 07:31:39;;;;;;;37.20;24.17;;;-1.10;99.90;;;;;;5111765;28;20509;-72
2021/03/08 07:34:08;;;;;;;40.20;24.50;;;-1.00;99.90;;;;;;5110815;28;20437;-73
2021/03/08 07:36:36;;;;;;;44.13;26.97;;;-0.90;99.90;;;;;;5111311;28;20445;-73
2021/03/08 07:39:13;;;;;;;33.63;23.63;;;-0.80;99.90;;;;;;5110863;28;20875;-73
2021/03/08 07:41:51;;;;;;;35.30;24.00;;;-0.70;99.90;;;;;;5111300;28;20441;-70
2021/03/08 07:44:23;;;;;;;33.60;25.57;;;-0.60;99.90;;;;;;5110452;28;21014;-72
2021/03/08 07:46:51;;;;;;;33.67;24.00;;;-0.40;99.90;;;;;;5111396;28;20442;-71
2021/03/08 07:49:30;;;;;;;36.90;27.30;;;-0.30;99.90;;;;;;5110712;28;20446;-71
2021/03/08 07:52:00;;;;;;;33.40;24.07;;;-0.10;99.90;;;;;;5111030;28;20958;-72
2021/03/08 07:54:27;;;;;;;36.00;24.90;;;0.10;99.90;;;;;;5108929;27;20552;-71
2021/03/08 07:56:56;;;;;;;35.13;24.03;;;0.20;99.90;;;;;;5107758;27;20539;-75
2021/03/08 07:59:24;;;;;;;31.40;21.97;;;0.20;99.90;;;;;;5108179;28;20939;-72
2021/03/08 08:01:51;;;;;;;32.77;22.87;;;0.30;99.90;;;;;;5102316;28;20521;-72
2021/03/08 08:04:17;;;;;;;31.87;23.50;;;0.40;99.90;;;;;;5109994;28;20489;-72
2021/03/08 08:06:44;;;;;;;30.20;23.60;;;0.60;99.90;;;;;;5110811;28;20442;-71
2021/03/08 08:09:12;;;;;;;31.67;23.37;;;0.70;99.90;;;;;;5110753;28;20856;-72
2021/03/08 08:11:39;;;;;;;27.37;20.77;;;0.80;99.90;;;;;;5110778;28;21114;-71
2021/03/08 08:14:08;;;;;;;28.10;21.50;;;0.80;99.90;;;;;;5110198;28;20532;-71
2021/03/08 08:16:36;;;;;;;25.40;20.20;;;0.80;99.90;;;;;;5110724;28;20442;-72
2021/03/08 08:19:05;;;;;;;29.80;23.17;;;1.00;99.90;;;;;;5110261;28;20459;-71
2021/03/08 08:21:35;;;;;;;27.23;22.17;;;1.20;99.90;;;;;;5108519;28;20498;-73
2021/03/08 08:24:03;;;;;;;28.50;21.00;;;1.30;99.90;;;;;;5106511;28;20979;-72
2021/03/08 08:26:30;;;;;;;25.90;20.83;;;1.40;99.90;;;;;;5110227;28;20958;-72
2021/03/08 08:28:57;;;;;;;26.57;19.23;;;1.60;99.90;;;;;;5110101;28;20445;-72
2021/03/08 08:31:24;;;;;;;23.40;20.73;;;1.90;99.90;;;;;;5110066;28;20532;-72
2021/03/08 08:33:50;;;;;;;27.30;20.07;;;2.00;99.90;;;;;;5109847;28;20549;-72
2021/03/08 08:36:20;;;;;;;26.13;20.37;;;2.20;99.90;;;;;;5109914;28;20527;-73
2021/03/08 08:39:12;;;;;;;27.43;19.60;;;2.50;99.90;;;;;;5110043;28;20481;-72
2021/03/08 08:41:39;;;;;;;22.23;16.80;;;2.60;99.90;;;;;;5110300;28;20437;-72
2021/03/08 08:44:39;;;;;;;22.07;18.40;;;2.80;99.90;;;;;;5109935;28;20445;-72
2021/03/08 08:47:31;;;;;;;26.63;18.50;;;3.10;99.90;;;;;;5110576;28;20521;-73
2021/03/08 08:50:02;;;;;;;22.20;16.33;;;3.40;99.90;;;;;;5103633;28;20430;-73
2021/03/08 08:52:53;;;;;;;18.70;15.43;;;3.60;99.90;;;;;;5110594;28;20434;-73
2021/03/08 08:55:22;;;;;;;17.73;14.57;;;3.80;99.90;;;;;;5094111;28;20530;-72
2021/03/08 08:58:18;;;;;;;17.50;14.47;;;3.80;99.90;;;;;;5110547;28;21070;-72
2021/03/08 09:01:34;;;;;;;20.10;15.87;;;3.50;99.90;;;;;;5110038;28;20826;-72
2021/03/08 09:04:01;;;;;;;18.73;15.33;;;3.40;99.90;;;;;;5109494;28;20460;-72
2021/03/08 09:06:46;;;;;;;17.67;15.37;;;3.50;99.90;;;;;;5110011;28;20526;-72
2021/03/08 09:09:15;;;;;;;16.83;14.43;;;3.70;99.90;;;;;;5109109;28;20445;-73
2021/03/08 09:11:44;;;;;;;17.10;15.30;;;4.10;99.90;;;;;;5110233;28;20445;-71
2021/03/08 09:14:26;;;;;;;17.60;14.83;;;4.50;99.90;;;;;;5109057;28;20441;-71
2021/03/08 09:17:20;;;;;;;18.43;16.50;;;4.90;99.90;;;;;;5109298;28;20522;-72
2021/03/08 09:19:50;;;;;;;18.23;16.30;;;5.00;99.90;;;;;;5093675;28;20879;-72
2021/03/08 09:22:44;;;;;;;15.10;13.43;;;5.70;99.90;;;;;;5109743;28;20948;-72
2021/03/08 09:25:26;;;;;;;19.27;14.57;;;6.20;99.90;;;;;;5108817;28;20520;-73
2021/03/08 09:28:01;;;;;;;16.70;14.70;;;6.20;99.90;;;;;;5109475;28;20864;-73
2021/03/08 09:30:29;;;;;;;15.43;13.93;;;6.50;99.90;;;;;;5110015;28;20472;-73
2021/03/08 09:32:58;;;;;;;14.47;12.97;;;6.80;99.90;;;;;;5109063;28;20472;-73
2021/03/08 09:35:26;;;;;;;13.13;11.80;;;6.90;99.90;;;;;;5108882;28;21023;-73
2021/03/08 09:37:55;;;;;;;13.80;11.90;;;6.80;99.90;;;;;;5108033;28;20579;-74
2021/03/08 09:40:25;;;;;;;15.67;14.07;;;6.30;99.90;;;;;;5098967;28;20456;-73
2021/03/08 09:42:52;;;;;;;15.17;13.60;;;6.30;99.90;;;;;;5103702;28;20450;-73
2021/03/08 09:45:21;;;;;;;13.70;12.30;;;6.40;99.90;;;;;;5108010;28;20517;-74
2021/03/08 09:47:48;;;;;;;14.30;12.00;;;6.50;99.90;;;;;;5101302;28;20959;-73
2021/03/08 09:50:18;;;;;;;16.00;14.37;;;6.30;99.90;;;;;;5108741;28;20465;-72
2021/03/08 09:52:45;;;;;;;13.40;12.00;;;5.90;99.90;;;;;;5093958;28;20579;-73
2021/03/08 09:55:15;;;;;;;16.50;12.60;;;5.70;99.90;;;;;;5096088;28;21040;-73
2021/03/08 09:57:44;;;;;;;14.60;13.07;;;5.70;99.90;;;;;;5100457;28;20445;-73
2021/03/08 10:00:13;;;;;;;14.90;13.20;;;5.70;99.90;;;;;;5103924;28;20441;-73
2021/03/08 10:02:40;;;;;;;15.03;13.20;;;6.10;99.90;;;;;;5112150;28;20465;-74
2021/03/08 10:05:08;;;;;;;14.30;12.10;;;6.50;99.90;;;;;;5110628;28;20469;-74
2021/03/08 10:07:35;;;;;;;13.70;11.70;;;6.60;99.90;;;;;;5098909;28;20457;-73
2021/03/08 10:10:12;;;;;;;13.53;12.13;;;7.00;99.90;;;;;;5095985;28;20469;-73
2021/03/08 10:12:39;;;;;;;14.93;12.87;;;7.00;99.90;;;;;;5108886;28;20476;-73
2021/03/08 10:15:09;;;;;;;12.53;11.23;;;7.20;99.90;;;;;;5107673;28;20544;-73
2021/03/08 10:17:51;;;;;;;13.97;12.37;;;7.40;99.60;;;;;;5109702;28;20433;-73
2021/03/08 10:20:17;;;;;;;13.47;11.77;;;7.50;98.30;;;;;;5112187;28;20467;-73
2021/03/08 10:22:44;;;;;;;14.53;13.07;;;7.40;98.40;;;;;;5112281;28;20524;-73
2021/03/08 10:25:24;;;;;;;13.07;11.77;;;7.50;98.10;;;;;;5111732;28;21046;-71
2021/03/08 10:27:55;;;;;;;11.73;10.63;;;7.70;99.10;;;;;;5105564;28;20457;-73
2021/03/08 10:30:24;;;;;;;11.93;10.73;;;8.00;98.20;;;;;;5112730;28;20525;-73
2021/03/08 10:32:54;;;;;;;11.60;9.67;;;7.70;96.10;;;;;;5112656;28;20441;-73
2021/03/08 10:35:21;;;;;;;13.53;12.10;;;7.50;96.30;;;;;;5112159;28;20453;-71
2021/03/08 10:37:49;;;;;;;12.63;11.33;;;7.50;97.30;;;;;;5111993;28;20468;-70
2021/03/08 10:40:18;;;;;;;14.47;10.60;;;7.50;96.80;;;;;;5109512;28;20445;-70
2021/03/08 10:42:45;;;;;;;11.03;9.83;;;7.50;96.50;;;;;;5104036;28;20808;-73
2021/03/08 10:45:13;;;;;;;12.70;9.20;;;7.40;96.20;;;;;;5112401;28;20487;-73
2021/03/08 10:47:41;;;;;;;11.30;10.07;;;7.20;96.60;;;;;;5112514;28;20477;-73
2021/03/08 10:50:08;;;;;;;11.87;9.37;;;7.40;97.40;;;;;;5112379;28;20440;-73
2021/03/08 10:52:35;;;;;;;11.60;10.50;;;7.40;95.20;;;;;;5112623;28;20484;-73
2021/03/08 10:55:02;;;;;;;12.10;9.20;;;7.30;95.70;;;;;;5111608;28;20462;-73
2021/03/08 10:57:29;;;;;;;10.57;9.47;;;7.30;95.00;;;;;;5112021;28;20473;-73
2021/03/08 10:59:56;;;;;;;11.30;8.57;;;7.40;95.90;;;;;;5111995;28;20525;-73
2021/03/08 11:02:24;;;;;;;10.90;9.80;;;7.40;94.10;;;;;;5110970;28;20475;-73
2021/03/08 11:04:52;;;;;;;10.70;9.60;;;7.60;95.70;;;;;;5111369;28;20481;-70
2021/03/08 11:07:32;;;;;;;17.20;10.90;;;7.90;95.00;;;;;;5111411;28;20441;-70
2021/03/08 11:09:58;;;;;;;10.73;9.67;;;7.80;95.20;;;;;;5106063;28;20525;-70
2021/03/08 11:12:25;;;;;;;10.20;9.10;;;7.90;94.70;;;;;;5109415;28;20480;-71
2021/03/08 11:14:53;;;;;;;11.67;9.40;;;8.00;93.20;;;;;;5111412;28;20536;-71
2021/03/08 11:17:34;;;;;;;10.83;9.83;;;8.30;95.20;;;;;;5111717;28;20445;-71
2021/03/08 11:20:08;;;;;;;10.07;9.10;;;8.60;93.10;;;;;;5112260;28;20433;-71
2021/03/08 11:22:53;;;;;;;10.90;9.80;;;8.60;93.10;;;;;;5111708;28;20566;-71
2021/03/08 11:25:35;;;;;;;11.13;9.70;;;9.10;93.50;;;;;;5111277;28;20476;-71
2021/03/08 11:28:03;;;;;;;9.37;8.43;;;9.50;92.20;;;;;;5111178;28;20544;-72
2021/03/08 11:30:30;;;;;;;9.97;8.97;;;9.00;90.70;;;;;;5109559;28;20473;-72
2021/03/08 11:32:58;;;;;;;12.23;10.13;;;9.20;91.50;;;;;;5112200;28;20469;-72
2021/03/08 11:35:27;;;;;;;10.50;9.23;;;9.50;90.70;;;;;;5111249;28;20540;-72
2021/03/08 11:37:58;;;;;;;9.30;8.50;;;9.80;90.20;;;;;;5111842;28;20442;-72
2021/03/08 11:40:25;;;;;;;10.73;9.53;;;10.00;88.10;;;;;;5111683;28;20551;-72
2021/03/08 11:42:52;;;;;;;10.60;8.60;;;10.00;89.00;;;;;;5110530;28;20488;-72
2021/03/08 11:45:19;;;;;;;11.67;10.07;;;10.40;89.90;;;;;;5110857;28;20501;-72
2021/03/08 11:47:49;;;;;;;10.77;8.83;;;9.70;86.30;;;;;;5111675;28;20975;-73
2021/03/08 11:50:16;;;;;;;10.77;9.30;;;9.10;88.40;;;;;;5112060;27;20532;-72
2021/03/08 11:52:43;;;;;;;12.10;10.80;;;8.60;90.00;;;;;;5111705;28;20441;-72
2021/03/08 11:55:10;;;;;;;11.37;10.27;;;8.40;90.20;;;;;;5110929;28;20465;-73
2021/03/08 11:57:37;;;;;;;12.73;9.73;;;8.70;92.20;;;;;;5102895;28;20541;-72
2021/03/08 12:00:06;;;;;;;12.40;9.90;;;9.90;89.10;;;;;;5102283;27;20502;-73
2021/03/08 12:02:32;;;;;;;9.60;8.70;;;11.40;86.60;;;;;;5102733;28;20474;-72
2021/03/08 12:04:59;;;;;;;10.83;9.73;;;12.80;81.00;;;;;;5109966;28;20567;-72
2021/03/08 12:07:25;;;;;;;12.37;9.53;;;13.80;76.70;;;;;;5110123;28;20532;-73
2021/03/08 12:09:53;;;;;;;11.10;9.10;;;14.60;70.90;;;;;;5110819;28;20536;-73
2021/03/08 12:12:19;;;;;;;9.70;8.80;;;15.40;67.20;;;;;;5110694;28;20526;-74
2021/03/08 12:14:45;;;;;;;10.60;9.60;;;15.80;65.00;;;;;;5110140;28;21039;-74
2021/03/08 12:17:12;;;;;;;10.53;9.40;;;16.50;62.70;;;;;;5111254;28;20506;-73
2021/03/08 12:19:38;;;;;;;10.90;9.80;;;15.60;62.70;;;;;;5110872;28;20476;-73
2021/03/08 12:22:05;;;;;;;11.60;10.30;;;14.50;60.40;;;;;;5112897;28;20532;-71
2021/03/08 12:24:31;;;;;;;9.90;8.90;;;14.00;61.40;;;;;;5112098;28;20879;-69
2021/03/08 12:26:59;;;;;;;10.40;9.30;;;13.60;63.20;;;;;;5112516;28;20870;-69
2021/03/08 12:29:25;;;;;;;10.50;8.60;;;13.70;63.90;;;;;;5112432;28;20570;-72
2021/03/08 12:31:51;;;;;;;9.37;8.00;;;13.30;59.80;;;;;;5112648;28;20481;-68
2021/03/08 12:34:18;;;;;;;9.00;7.80;;;12.50;59.20;;;;;;5111994;28;20940;-67
2021/03/08 12:36:44;;;;;;;10.50;8.10;;;12.20;62.50;;;;;;5112830;28;20524;-72
2021/03/08 12:39:11;;;;;;;10.80;9.70;;;13.30;62.10;;;;;;5112677;28;20441;-71
2021/03/08 12:41:39;;;;;;;9.10;8.20;;;14.70;61.10;;;;;;5112372;28;20452;-72
2021/03/08 12:44:07;;;;;;;8.90;7.93;;;15.10;57.70;;;;;;5112066;28;20578;-69
2021/03/08 12:46:33;;;;;;;9.70;8.73;;;15.90;57.90;;;;;;5112419;28;20563;-69